Time;durP1;ratioP1;P1;durP2;ratioP2;P2;SDS_P1;SDS_P2;PMS_P1;PMS_P2;Temp;Humidity;BMP_temperature;BMP_pressure;BME280_temperature;BME280_humidity;BME280_pressure;Samples;Min_cycle;Max_cycle;Signal;HPM_P1;HPM_P2
2021/12/17 00:01:17;;;;;;;9.70;3.70;;;;;;;;;;105369;1295;64854;-26
2021/12/17 00:03:48;;;;;;;8.50;3.80;;;;;;;;;;105378;1296;65021;-26
2021/12/17 00:08:55;;;;;;;9.70;3.80;;;;;;;;;;105373;1296;64905;-32
2021/12/17 00:11:22;;;;;;;6.80;3.50;;;;;;;;;;105343;1290;64857;-31
2021/12/17 00:13:50;;;;;;;7.40;3.70;;;;;;;;;;105389;1294;64748;-29
2021/12/17 00:16:21;;;;;;;8.50;3.40;;;;;;;;;;105423;1298;64745;-27
2021/12/17 00:19:05;;;;;;;9.70;3.80;;;;;;;;;;105361;1299;64822;-27
2021/12/17 00:49:01;;;;;;;7.80;3.50;;;;;;;;;;105417;1293;64885;-31
2021/12/17 00:54:21;;;;;;;7.80;3.20;;;;;;;;;;105382;1297;64779;-44
2021/12/17 00:56:50;;;;;;;8.70;3.30;;;;;;;;;;105402;1296;64754;-34
2021/12/17 00:59:17;;;;;;;7.80;3.40;;;;;;;;;;105395;1297;64799;-27
2021/12/17 01:01:45;;;;;;;8.40;3.80;;;;;;;;;;105380;1296;64809;-28
2021/12/17 01:04:12;;;;;;;7.70;3.20;;;;;;;;;;105390;1297;64875;-32
2021/12/17 01:06:39;;;;;;;7.20;3.50;;;;;;;;;;105395;1296;64777;-34
2021/12/17 01:09:07;;;;;;;6.90;3.50;;;;;;;;;;105254;1299;64871;-34
2021/12/17 01:11:35;;;;;;;8.30;3.80;;;;;;;;;;105406;1288;64741;-32
2021/12/17 01:14:03;;;;;;;7.80;3.70;;;;;;;;;;105387;1295;64747;-27
2021/12/17 01:16:29;;;;;;;7.60;3.30;;;;;;;;;;105295;1297;65452;-28
2021/12/17 01:22:13;;;;;;;7.60;3.30;;;;;;;;;;105123;1300;65458;-27
2021/12/17 01:25:09;;;;;;;7.30;3.40;;;;;;;;;;105383;1294;64862;-34
2021/12/17 01:35:52;;;;;;;6.10;3.20;;;;;;;;;;105368;1296;64779;-35
2021/12/17 01:43:48;;;;;;;8.20;3.50;;;;;;;;;;105406;1296;64841;-28
2021/12/17 01:46:20;;;;;;;7.10;3.30;;;;;;;;;;105389;1295;65532;-29
2021/12/17 01:48:57;;;;;;;6.90;3.20;;;;;;;;;;105379;1298;64842;-27
2021/12/17 01:59:20;;;;;;;6.70;3.20;;;;;;;;;;105384;1298;64897;-28
2021/12/17 01:59:48;;;;;;;7.40;3.40;;;;;;;;;;105425;1298;64867;-33
2021/12/17 02:02:16;;;;;;;6.40;3.40;;;;;;;;;;105447;1296;65033;-39
2021/12/17 02:04:44;;;;;;;8.60;3.10;;;;;;;;;;105355;1299;64978;-33
2021/12/17 02:07:11;;;;;;;7.70;3.30;;;;;;;;;;105397;1296;64889;-34
2021/12/17 02:20:27;;;;;;;7.40;3.00;;;;;;;;;;105432;1297;64859;-34
2021/12/17 02:28:40;;;;;;;6.70;2.90;;;;;;;;;;105392;1295;64788;-33
2021/12/17 02:28:48;;;;;;;6.40;2.80;;;;;;;;;;105394;1296;64786;-33
2021/12/17 02:33:51;;;;;;;7.00;3.10;;;;;;;;;;105412;1296;64754;-33
2021/12/17 02:36:23;;;;;;;8.20;3.30;;;;;;;;;;105392;1295;64760;-28
2021/12/17 02:38:53;;;;;;;7.60;3.50;;;;;;;;;;105378;1300;64826;-27
2021/12/17 02:46:51;;;;;;;6.50;2.90;;;;;;;;;;105281;1289;64952;-32
2021/12/17 02:49:19;;;;;;;6.70;2.80;;;;;;;;;;105400;1295;64865;-33
2021/12/17 02:51:47;;;;;;;7.30;3.30;;;;;;;;;;105418;1298;64779;-33
2021/12/17 02:54:14;;;;;;;7.20;2.80;;;;;;;;;;105443;1299;64838;-32
2021/12/17 02:56:41;;;;;;;5.80;2.80;;;;;;;;;;105395;1299;64869;-34
2021/12/17 02:59:13;;;;;;;7.40;2.90;;;;;;;;;;105419;1299;64940;-31
2021/12/17 03:01:44;;;;;;;6.30;2.80;;;;;;;;;;105463;1297;65295;-32
2021/12/17 03:04:13;;;;;;;5.80;2.70;;;;;;;;;;105397;1297;64903;-27
2021/12/17 03:06:41;;;;;;;6.30;2.90;;;;;;;;;;105439;1297;64897;-27
2021/12/17 03:09:08;;;;;;;7.40;3.20;;;;;;;;;;105418;1298;64844;-27
2021/12/17 03:11:35;;;;;;;7.20;2.70;;;;;;;;;;105418;1295;64978;-26
2021/12/17 03:14:02;;;;;;;6.50;2.80;;;;;;;;;;105433;1294;64834;-28
2021/12/17 03:16:38;;;;;;;8.00;3.10;;;;;;;;;;105372;1298;64794;-27
2021/12/17 03:19:10;;;;;;;7.10;3.00;;;;;;;;;;105372;1297;64790;-34
2021/12/17 03:24:23;;;;;;;6.50;2.60;;;;;;;;;;105373;1295;64939;-33
2021/12/17 03:26:50;;;;;;;7.70;2.80;;;;;;;;;;105356;1299;64694;-33
2021/12/17 03:29:17;;;;;;;5.80;2.90;;;;;;;;;;105378;1295;64849;-32
2021/12/17 03:31:44;;;;;;;6.10;2.90;;;;;;;;;;105412;1297;64882;-33
2021/12/17 03:34:19;;;;;;;7.10;3.00;;;;;;;;;;105356;1296;64753;-27
2021/12/17 03:36:53;;;;;;;5.80;2.40;;;;;;;;;;105377;1298;64747;-26
2021/12/17 03:39:21;;;;;;;7.20;2.70;;;;;;;;;;105356;1295;64971;-32
2021/12/17 03:41:51;;;;;;;7.70;2.80;;;;;;;;;;105401;1295;64851;-33
2021/12/17 03:44:19;;;;;;;7.40;2.90;;;;;;;;;;105397;1297;64848;-27
2021/12/17 03:46:47;;;;;;;6.00;2.80;;;;;;;;;;105357;1296;64877;-27
2021/12/17 03:49:14;;;;;;;5.90;2.50;;;;;;;;;;105399;1298;64857;-32
2021/12/17 03:52:03;;;;;;;6.90;2.70;;;;;;;;;;105389;1295;64847;-32
2021/12/17 03:54:34;;;;;;;6.20;2.60;;;;;;;;;;105375;1299;64826;-27
2021/12/17 03:57:01;;;;;;;7.10;2.70;;;;;;;;;;105386;1298;64825;-26
2021/12/17 03:59:28;;;;;;;6.30;2.50;;;;;;;;;;105420;1298;64873;-27
2021/12/17 04:01:55;;;;;;;7.20;3.20;;;;;;;;;;105410;1295;64906;-28
2021/12/17 04:04:22;;;;;;;6.30;2.50;;;;;;;;;;105395;1297;64947;-27
2021/12/17 04:06:49;;;;;;;5.20;2.20;;;;;;;;;;105385;1298;64925;-27
2021/12/17 04:09:19;;;;;;;5.70;2.40;;;;;;;;;;105407;1295;65567;-27
2021/12/17 04:11:47;;;;;;;7.40;2.80;;;;;;;;;;105423;1299;64804;-27
2021/12/17 04:14:14;;;;;;;7.20;2.70;;;;;;;;;;105394;1295;64976;-26
2021/12/17 04:16:41;;;;;;;6.30;2.50;;;;;;;;;;105412;1298;65473;-27
2021/12/17 04:19:08;;;;;;;6.00;2.60;;;;;;;;;;105399;1297;64828;-26
2021/12/17 04:21:35;;;;;;;6.50;2.50;;;;;;;;;;105436;1297;64857;-27
2021/12/17 04:24:02;;;;;;;6.40;2.70;;;;;;;;;;105393;1298;64904;-33
2021/12/17 04:26:29;;;;;;;6.90;2.80;;;;;;;;;;105364;1295;64938;-33
2021/12/17 04:28:56;;;;;;;5.80;2.90;;;;;;;;;;105422;1296;64889;-31
2021/12/17 04:31:26;;;;;;;7.10;2.70;;;;;;;;;;105379;1299;64867;-32
2021/12/17 04:33:53;;;;;;;7.00;3.00;;;;;;;;;;105409;1295;64885;-32
2021/12/17 04:36:26;;;;;;;5.80;2.50;;;;;;;;;;105417;1295;64875;-33
2021/12/17 04:38:54;;;;;;;5.90;2.20;;;;;;;;;;105434;1295;65927;-33
2021/12/17 04:44:27;;;;;;;5.50;2.20;;;;;;;;;;105412;1296;64745;-27
2021/12/17 04:57:52;;;;;;;7.50;2.50;;;;;;;;;;105406;1295;64894;-27
2021/12/17 05:00:23;;;;;;;5.90;2.40;;;;;;;;;;105426;1298;64754;-33
2021/12/17 05:02:53;;;;;;;6.80;2.60;;;;;;;;;;105389;1296;64900;-32
2021/12/17 05:05:21;;;;;;;5.90;2.50;;;;;;;;;;105389;1297;64821;-26
2021/12/17 05:07:53;;;;;;;5.70;2.40;;;;;;;;;;105386;1295;64931;-28
2021/12/17 05:18:33;;;;;;;7.00;2.30;;;;;;;;;;105390;1298;64947;-26
2021/12/17 05:21:06;;;;;;;6.50;2.10;;;;;;;;;;105392;1298;64857;-27
2021/12/17 05:23:37;;;;;;;5.60;2.50;;;;;;;;;;105389;1294;65310;-27
2021/12/17 05:26:05;;;;;;;5.90;2.30;;;;;;;;;;105375;1291;64828;-27
2021/12/17 05:28:32;;;;;;;7.40;2.60;;;;;;;;;;105380;1298;64943;-27
2021/12/17 05:30:59;;;;;;;6.50;2.40;;;;;;;;;;105404;1297;64734;-27
2021/12/17 05:33:26;;;;;;;6.20;2.50;;;;;;;;;;105408;1294;64880;-27
2021/12/17 05:35:54;;;;;;;5.30;2.50;;;;;;;;;;105450;1294;64782;-27
2021/12/17 05:38:22;;;;;;;5.60;2.40;;;;;;;;;;105377;1290;64792;-26
2021/12/17 05:40:50;;;;;;;6.30;2.40;;;;;;;;;;105400;1297;64820;-33
2021/12/17 05:43:17;;;;;;;6.50;2.30;;;;;;;;;;105464;1294;64820;-33
2021/12/17 05:46:01;;;;;;;7.10;2.60;;;;;;;;;;105540;1294;64874;-27
2021/12/17 05:48:29;;;;;;;5.10;2.10;;;;;;;;;;105515;1296;64706;-27
2021/12/17 05:50:57;;;;;;;6.80;2.50;;;;;;;;;;105527;1296;64818;-27
2021/12/17 05:53:25;;;;;;;6.40;2.20;;;;;;;;;;105382;1297;64834;-27
2021/12/17 05:55:52;;;;;;;6.10;2.40;;;;;;;;;;105540;1297;64861;-27
2021/12/17 05:58:19;;;;;;;5.90;2.50;;;;;;;;;;105529;1291;64695;-26
2021/12/17 06:00:46;;;;;;;5.80;2.30;;;;;;;;;;105533;1296;64860;-35
2021/12/17 06:03:14;;;;;;;6.40;2.30;;;;;;;;;;105551;1296;65615;-32
2021/12/17 06:05:41;;;;;;;5.70;2.00;;;;;;;;;;105521;1294;64800;-27
2021/12/17 06:08:07;;;;;;;5.20;2.00;;;;;;;;;;105506;1294;64949;-27
2021/12/17 06:10:34;;;;;;;6.40;2.50;;;;;;;;;;105525;1296;64709;-27
2021/12/17 06:13:02;;;;;;;5.50;2.30;;;;;;;;;;105508;1296;64917;-27
2021/12/17 06:15:29;;;;;;;6.20;2.30;;;;;;;;;;105524;1293;64875;-33
2021/12/17 06:17:56;;;;;;;5.70;2.10;;;;;;;;;;105513;1297;64867;-41
2021/12/17 06:20:24;;;;;;;5.90;2.30;;;;;;;;;;105539;1297;64824;-27
2021/12/17 06:22:52;;;;;;;7.40;2.60;;;;;;;;;;105577;1297;64965;-32
2021/12/17 06:25:19;;;;;;;6.00;2.00;;;;;;;;;;105559;1293;64749;-40
2021/12/17 06:27:46;;;;;;;6.60;2.70;;;;;;;;;;105266;1292;385020;-30
2021/12/17 06:30:15;;;;;;;6.60;2.30;;;;;;;;;;105534;1295;64867;-33
2021/12/17 06:32:42;;;;;;;5.90;2.40;;;;;;;;;;105508;1296;64748;-33
2021/12/17 06:35:09;;;;;;;5.70;2.30;;;;;;;;;;105365;1297;64852;-33
2021/12/17 06:37:37;;;;;;;5.60;2.00;;;;;;;;;;105497;1293;64741;-33
2021/12/17 06:40:05;;;;;;;7.00;2.40;;;;;;;;;;105536;1297;64755;-40
2021/12/17 06:42:32;;;;;;;7.00;2.50;;;;;;;;;;105542;1293;64771;-32
2021/12/17 06:45:04;;;;;;;5.00;2.20;;;;;;;;;;105562;1290;64764;-39
2021/12/17 06:47:34;;;;;;;7.20;2.70;;;;;;;;;;105518;1294;64831;-33
2021/12/17 07:00:44;;;;;;;6.20;2.70;;;;;;;;;;105534;1297;64810;-26
2021/12/17 07:06:05;;;;;;;8.30;2.30;;;;;;;;;;105549;1294;64878;-33
2021/12/17 07:33:02;;;;;;;6.70;2.80;;;;;;;;;;105358;1296;64840;-34
2021/12/17 07:35:41;;;;;;;6.40;2.80;;;;;;;;;;105382;1297;64921;-34
2021/12/17 07:40:54;;;;;;;7.90;2.50;;;;;;;;;;105356;1296;64844;-33
2021/12/17 07:43:27;;;;;;;7.70;2.60;;;;;;;;;;105254;1298;64868;-32
2021/12/17 07:45:56;;;;;;;9.10;2.90;;;;;;;;;;105393;1295;64901;-33
2021/12/17 07:48:23;;;;;;;7.60;2.60;;;;;;;;;;105457;1293;64863;-33
2021/12/17 07:50:51;;;;;;;6.40;2.40;;;;;;;;;;105369;1297;64866;-33
2021/12/17 07:53:18;;;;;;;7.90;2.20;;;;;;;;;;105360;1295;64924;-33
2021/12/17 07:55:45;;;;;;;8.10;2.60;;;;;;;;;;105408;1293;64832;-33
2021/12/17 07:58:12;;;;;;;6.30;2.40;;;;;;;;;;105389;1296;64881;-33
2021/12/17 08:00:39;;;;;;;6.20;2.40;;;;;;;;;;105369;1296;64883;-33
2021/12/17 08:03:06;;;;;;;7.70;2.40;;;;;;;;;;105375;1298;64747;-33
2021/12/17 08:05:33;;;;;;;6.70;2.40;;;;;;;;;;105410;1296;64924;-33
2021/12/17 08:08:00;;;;;;;6.30;2.60;;;;;;;;;;105351;1296;64769;-37
2021/12/17 08:10:26;;;;;;;7.50;2.60;;;;;;;;;;105370;1299;64984;-37
2021/12/17 08:12:55;;;;;;;6.30;2.70;;;;;;;;;;105379;1299;64721;-33
2021/12/17 08:15:29;;;;;;;7.30;2.30;;;;;;;;;;105421;1296;64891;-27
2021/12/17 08:28:50;;;;;;;6.40;2.60;;;;;;;;;;105401;1297;64673;-27
2021/12/17 08:31:17;;;;;;;6.60;2.50;;;;;;;;;;105341;1296;65029;-33
2021/12/17 08:33:44;;;;;;;5.90;2.30;;;;;;;;;;105411;1297;64755;-33
2021/12/17 08:36:11;;;;;;;7.70;2.40;;;;;;;;;;105436;1296;64859;-33
2021/12/17 08:38:38;;;;;;;6.10;2.40;;;;;;;;;;105367;1296;64885;-33
2021/12/17 08:41:06;;;;;;;7.80;2.80;;;;;;;;;;105407;1296;64844;-33
2021/12/17 08:43:33;;;;;;;6.50;2.40;;;;;;;;;;105399;1296;64918;-32
2021/12/17 08:45:59;;;;;;;6.10;2.30;;;;;;;;;;105409;1295;64984;-34
2021/12/17 08:48:27;;;;;;;6.60;2.30;;;;;;;;;;105379;1296;64828;-35
2021/12/17 08:50:54;;;;;;;7.20;2.60;;;;;;;;;;105393;1295;64903;-33
2021/12/17 08:53:21;;;;;;;7.20;2.70;;;;;;;;;;105402;1296;64748;-33
2021/12/17 08:55:48;;;;;;;6.10;2.50;;;;;;;;;;105415;1297;64927;-26
2021/12/17 08:58:15;;;;;;;8.60;2.80;;;;;;;;;;105363;1296;64869;-27
2021/12/17 09:00:43;;;;;;;7.90;3.00;;;;;;;;;;105376;1295;64973;-26
2021/12/17 09:03:10;;;;;;;9.30;3.50;;;;;;;;;;105360;1296;64824;-27
2021/12/17 09:05:38;;;;;;;11.10;3.70;;;;;;;;;;105272;1296;64751;-26
2021/12/17 09:08:06;;;;;;;8.60;3.30;;;;;;;;;;105264;1297;64868;-28
2021/12/17 09:10:33;;;;;;;7.50;3.40;;;;;;;;;;105195;1295;64980;-28
2021/12/17 09:13:00;;;;;;;6.90;2.90;;;;;;;;;;105246;1296;64915;-34
2021/12/17 09:15:28;;;;;;;8.40;3.20;;;;;;;;;;105112;1296;64988;-29
2021/12/17 09:17:54;;;;;;;8.30;2.80;;;;;;;;;;105233;1295;64808;-28
2021/12/17 09:20:21;;;;;;;8.50;3.50;;;;;;;;;;105281;1296;64998;-28
2021/12/17 09:22:48;;;;;;;8.60;3.50;;;;;;;;;;105225;1295;64770;-28
2021/12/17 09:25:15;;;;;;;10.00;3.40;;;;;;;;;;105254;1299;65011;-34
2021/12/17 09:27:42;;;;;;;8.70;3.40;;;;;;;;;;105271;1297;64758;-34
2021/12/17 09:30:11;;;;;;;8.20;3.70;;;;;;;;;;105240;1296;64892;-34
2021/12/17 09:32:39;;;;;;;11.00;4.00;;;;;;;;;;105276;1296;64792;-34
2021/12/17 09:35:07;;;;;;;8.90;3.50;;;;;;;;;;105277;1296;64895;-35
2021/12/17 09:37:34;;;;;;;7.40;3.10;;;;;;;;;;105332;1294;64886;-33
2021/12/17 09:40:06;;;;;;;8.40;3.30;;;;;;;;;;105431;1284;64915;-35
2021/12/17 09:42:33;;;;;;;8.90;3.00;;;;;;;;;;105363;1297;64913;-34
2021/12/17 09:45:00;;;;;;;9.50;4.00;;;;;;;;;;105373;1296;65004;-28
2021/12/17 09:47:27;;;;;;;7.90;3.50;;;;;;;;;;105378;1295;64737;-28
2021/12/17 09:49:55;;;;;;;8.60;3.50;;;;;;;;;;105385;1296;64971;-36
2021/12/17 09:52:22;;;;;;;9.00;3.60;;;;;;;;;;105251;1296;65486;-34
2021/12/17 09:54:51;;;;;;;9.60;3.70;;;;;;;;;;105381;1296;64937;-27
2021/12/17 09:57:19;;;;;;;9.10;3.50;;;;;;;;;;105377;1297;64930;-28
2021/12/17 09:59:46;;;;;;;8.00;3.10;;;;;;;;;;105313;1296;64830;-31
2021/12/17 10:02:14;;;;;;;8.20;3.60;;;;;;;;;;105402;1295;65043;-30
2021/12/17 10:04:45;;;;;;;7.10;3.20;;;;;;;;;;105376;1297;64679;-25
2021/12/17 10:07:20;;;;;;;9.70;5.00;;;;;;;;;;105352;1295;64785;-27
2021/12/17 10:09:55;;;;;;;10.10;4.90;;;;;;;;;;105391;1296;65498;-35
2021/12/17 10:12:29;;;;;;;9.20;4.80;;;;;;;;;;105370;1296;64899;-34
2021/12/17 10:14:59;;;;;;;8.50;4.00;;;;;;;;;;105531;1293;64787;-28
2021/12/17 10:17:26;;;;;;;7.30;3.40;;;;;;;;;;105556;1296;64742;-27
2021/12/17 10:19:53;;;;;;;7.60;4.00;;;;;;;;;;105542;1293;64828;-26
2021/12/17 10:22:21;;;;;;;7.30;3.30;;;;;;;;;;105361;1297;64994;-34
2021/12/17 10:24:58;;;;;;;8.00;4.00;;;;;;;;;;105379;1295;64878;-26
2021/12/17 10:27:27;;;;;;;9.20;3.50;;;;;;;;;;105363;1288;64757;-26
2021/12/17 10:29:55;;;;;;;10.30;3.90;;;;;;;;;;105373;1296;64856;-27
2021/12/17 10:32:24;;;;;;;8.50;3.70;;;;;;;;;;105386;1296;64823;-26
2021/12/17 10:35:02;;;;;;;8.00;3.80;;;;;;;;;;105368;1294;64978;-25
2021/12/17 10:37:34;;;;;;;10.10;3.70;;;;;;;;;;105362;1296;64841;-33
2021/12/17 10:40:13;;;;;;;7.60;3.00;;;;;;;;;;105265;1296;64854;-32
2021/12/17 10:42:42;;;;;;;9.00;3.40;;;;;;;;;;105368;1293;64939;-33
2021/12/17 10:45:11;;;;;;;8.20;3.60;;;;;;;;;;105416;1296;64853;-33
2021/12/17 10:47:46;;;;;;;10.10;3.60;;;;;;;;;;105375;1296;64831;-33
2021/12/17 10:50:24;;;;;;;9.70;4.80;;;;;;;;;;105364;1296;64754;-27
2021/12/17 10:52:55;;;;;;;10.00;4.90;;;;;;;;;;105414;1296;65034;-38
2021/12/17 10:55:24;;;;;;;9.90;4.50;;;;;;;;;;105319;1296;64807;-34
2021/12/17 10:57:57;;;;;;;9.60;4.90;;;;;;;;;;105384;1296;64848;-35
2021/12/17 11:00:24;;;;;;;9.10;4.50;;;;;;;;;;105355;1296;64985;-33
2021/12/17 11:02:53;;;;;;;9.50;4.20;;;;;;;;;;105357;1296;64842;-35
2021/12/17 11:05:21;;;;;;;11.70;5.20;;;;;;;;;;105353;1294;64788;-29
2021/12/17 11:07:50;;;;;;;8.80;4.90;;;;;;;;;;105356;1296;64888;-30
2021/12/17 11:10:23;;;;;;;12.10;4.90;;;;;;;;;;105394;1296;64898;-27
2021/12/17 11:12:50;;;;;;;9.80;4.50;;;;;;;;;;105379;1296;64760;-26
2021/12/17 11:15:18;;;;;;;7.00;3.50;;;;;;;;;;105408;1294;64847;-26
2021/12/17 11:17:52;;;;;;;7.60;3.40;;;;;;;;;;105360;1296;64859;-26
2021/12/17 11:20:21;;;;;;;9.00;4.30;;;;;;;;;;105402;1295;64868;-28
2021/12/17 11:22:48;;;;;;;7.30;3.60;;;;;;;;;;105383;1294;64892;-25
2021/12/17 11:25:17;;;;;;;8.70;3.90;;;;;;;;;;105369;1297;64937;-35
2021/12/17 11:27:44;;;;;;;6.90;3.40;;;;;;;;;;105383;1296;64859;-35
2021/12/17 11:30:13;;;;;;;7.20;3.30;;;;;;;;;;105360;1296;64935;-24
2021/12/17 11:32:42;;;;;;;8.20;3.40;;;;;;;;;;105330;1295;64867;-23
2021/12/17 11:35:09;;;;;;;8.50;3.80;;;;;;;;;;105385;1296;64785;-27
2021/12/17 11:37:39;;;;;;;8.70;3.80;;;;;;;;;;105346;1294;64751;-24
2021/12/17 11:40:12;;;;;;;7.20;3.20;;;;;;;;;;105277;1297;64793;-26
2021/12/17 11:43:00;;;;;;;8.10;3.50;;;;;;;;;;105285;1299;64869;-32
2021/12/17 11:45:29;;;;;;;6.00;2.90;;;;;;;;;;105386;1296;64833;-32
2021/12/17 11:48:16;;;;;;;6.40;3.10;;;;;;;;;;105393;1299;64865;-32
2021/12/17 11:50:43;;;;;;;5.30;2.70;;;;;;;;;;105345;1296;64874;-32
2021/12/17 11:53:16;;;;;;;6.90;2.80;;;;;;;;;;105445;1295;64894;-33
2021/12/17 11:55:44;;;;;;;6.20;2.80;;;;;;;;;;105419;1285;64862;-28
2021/12/17 11:58:15;;;;;;;6.10;3.00;;;;;;;;;;105353;1295;64719;-27
2021/12/17 12:00:41;;;;;;;13.80;4.20;;;;;;;;;;105430;1296;64893;-31
2021/12/17 12:03:11;;;;;;;7.20;3.10;;;;;;;;;;105410;1297;64786;-32
2021/12/17 12:05:40;;;;;;;7.60;3.10;;;;;;;;;;105387;1296;64864;-31
2021/12/17 12:08:24;;;;;;;6.80;2.70;;;;;;;;;;105375;1298;64913;-32
2021/12/17 12:11:08;;;;;;;5.80;2.80;;;;;;;;;;105372;1288;64762;-31
2021/12/17 12:13:36;;;;;;;8.60;3.10;;;;;;;;;;105328;1296;64820;-39
2021/12/17 12:16:04;;;;;;;5.40;2.50;;;;;;;;;;105368;1296;64900;-30
2021/12/17 12:18:39;;;;;;;7.00;2.90;;;;;;;;;;105354;1297;64721;-30
2021/12/17 12:21:06;;;;;;;6.50;3.10;;;;;;;;;;105334;1296;64890;-37
2021/12/17 12:23:33;;;;;;;6.50;2.60;;;;;;;;;;105344;1296;65627;-43
2021/12/17 12:26:08;;;;;;;5.40;2.80;;;;;;;;;;105346;1296;64801;-26
2021/12/17 12:28:56;;;;;;;6.60;2.60;;;;;;;;;;105350;1296;64854;-27
2021/12/17 12:31:27;;;;;;;6.20;2.80;;;;;;;;;;105321;1296;64863;-31
2021/12/17 12:34:00;;;;;;;5.80;2.70;;;;;;;;;;105333;1296;64878;-27
2021/12/17 12:36:46;;;;;;;6.20;2.60;;;;;;;;;;105288;1296;64865;-31
2021/12/17 12:39:15;;;;;;;6.60;3.00;;;;;;;;;;105387;1296;64750;-28
2021/12/17 12:41:44;;;;;;;6.80;3.10;;;;;;;;;;105242;1296;64759;-32
2021/12/17 12:44:11;;;;;;;6.80;3.00;;;;;;;;;;105428;1296;64762;-29
2021/12/17 12:46:56;;;;;;;6.70;2.70;;;;;;;;;;105390;1296;64841;-33
2021/12/17 12:49:43;;;;;;;5.80;2.50;;;;;;;;;;105253;1294;64710;-33
2021/12/17 12:52:20;;;;;;;6.80;2.70;;;;;;;;;;105382;1296;64885;-34
2021/12/17 12:54:49;;;;;;;5.60;2.40;;;;;;;;;;105284;1296;64871;-30
2021/12/17 12:57:26;;;;;;;6.00;2.70;;;;;;;;;;105452;1296;64892;-32
2021/12/17 12:59:54;;;;;;;4.70;2.10;;;;;;;;;;105358;1296;65501;-31
2021/12/17 13:02:25;;;;;;;6.30;2.70;;;;;;;;;;105382;1296;64858;-31
2021/12/17 13:04:53;;;;;;;6.40;2.40;;;;;;;;;;105365;1296;64966;-31
2021/12/17 13:07:38;;;;;;;6.10;2.70;;;;;;;;;;105374;1296;64997;-31
2021/12/17 13:10:06;;;;;;;5.80;2.50;;;;;;;;;;105365;1295;64734;-26
2021/12/17 13:12:35;;;;;;;6.30;2.50;;;;;;;;;;105356;1296;64864;-27
2021/12/17 13:15:39;;;;;;;5.00;2.10;;;;;;;;;;105385;1294;64964;-27
2021/12/17 13:23:22;;;;;;;7.40;2.80;;;;;;;;;;105267;1296;64862;-32
2021/12/17 13:26:01;;;;;;;5.70;2.60;;;;;;;;;;105407;1296;64881;-26
2021/12/17 13:28:29;;;;;;;7.20;2.80;;;;;;;;;;105360;1296;64848;-28
2021/12/17 13:30:56;;;;;;;6.90;2.50;;;;;;;;;;105322;1297;64915;-33
2021/12/17 13:33:35;;;;;;;7.10;2.60;;;;;;;;;;105401;1296;64813;-31
2021/12/17 13:36:03;;;;;;;6.00;2.80;;;;;;;;;;105440;1296;64754;-32
2021/12/17 13:38:32;;;;;;;6.40;2.40;;;;;;;;;;105423;1296;64697;-33
2021/12/17 13:40:59;;;;;;;5.80;2.20;;;;;;;;;;105388;1298;64765;-27
2021/12/17 13:43:27;;;;;;;5.90;2.50;;;;;;;;;;105266;1296;64944;-26
2021/12/17 13:45:55;;;;;;;5.20;2.30;;;;;;;;;;105403;1298;64844;-27
2021/12/17 13:48:22;;;;;;;6.40;2.90;;;;;;;;;;105380;1296;64872;-35
2021/12/17 13:50:50;;;;;;;6.30;2.50;;;;;;;;;;105383;1296;64854;-28
2021/12/17 13:53:17;;;;;;;5.80;2.20;;;;;;;;;;105377;1296;64757;-27
2021/12/17 13:55:46;;;;;;;5.60;2.50;;;;;;;;;;105404;1296;65428;-28
2021/12/17 13:58:15;;;;;;;6.50;2.50;;;;;;;;;;105396;1296;64876;-28
2021/12/17 14:00:44;;;;;;;4.80;2.40;;;;;;;;;;105446;1296;64872;-28
2021/12/17 14:03:13;;;;;;;5.20;2.40;;;;;;;;;;105430;1296;64850;-29
2021/12/17 14:05:44;;;;;;;5.60;2.40;;;;;;;;;;105444;1296;64931;-34
2021/12/17 14:08:12;;;;;;;5.50;2.20;;;;;;;;;;105433;1296;64864;-34
2021/12/17 14:10:41;;;;;;;5.90;2.40;;;;;;;;;;105431;1295;64748;-38
2021/12/17 14:13:15;;;;;;;5.00;2.40;;;;;;;;;;105346;1296;64988;-33
2021/12/17 14:15:43;;;;;;;7.00;2.30;;;;;;;;;;105404;1296;64757;-34
2021/12/17 14:18:11;;;;;;;5.50;2.10;;;;;;;;;;105242;1298;64912;-34
2021/12/17 14:20:39;;;;;;;5.10;2.20;;;;;;;;;;105308;1296;64907;-32
2021/12/17 14:23:08;;;;;;;5.60;2.70;;;;;;;;;;105299;1296;64882;-32
2021/12/17 14:25:39;;;;;;;6.50;2.50;;;;;;;;;;105392;1293;65391;-28
2021/12/17 14:28:13;;;;;;;5.90;2.50;;;;;;;;;;105160;1296;316534;-28
2021/12/17 14:31:02;;;;;;;6.40;2.70;;;;;;;;;;105284;1298;64835;-35
2021/12/17 14:33:33;;;;;;;7.10;2.60;;;;;;;;;;105385;1296;64708;-40
2021/12/17 14:36:02;;;;;;;6.40;2.60;;;;;;;;;;105394;1296;64789;-35
2021/12/17 14:38:34;;;;;;;6.50;2.80;;;;;;;;;;105385;1296;65371;-36
2021/12/17 14:41:03;;;;;;;5.60;2.40;;;;;;;;;;105447;1294;64754;-34
2021/12/17 14:43:35;;;;;;;5.70;2.10;;;;;;;;;;105427;1296;64810;-34
2021/12/17 14:57:13;;;;;;;4.90;2.40;;;;;;;;;;105421;1296;64751;-35
2021/12/17 15:04:49;;;;;;;5.00;2.30;;;;;;;;;;105407;1297;64827;-36
2021/12/17 15:07:18;;;;;;;5.50;2.40;;;;;;;;;;105388;1285;64859;-39
2021/12/17 15:09:46;;;;;;;9.20;2.90;;;;;;;;;;105434;1296;64822;-33
2021/12/17 15:12:37;;;;;;;5.60;2.40;;;;;;;;;;105419;1294;64803;-31
2021/12/17 15:15:06;;;;;;;6.10;2.50;;;;;;;;;;105226;1296;64787;-32
2021/12/17 15:17:34;;;;;;;6.10;2.50;;;;;;;;;;105294;1297;64385;-30
2021/12/17 15:20:02;;;;;;;6.20;2.60;;;;;;;;;;105279;1294;64760;-27
2021/12/17 15:22:29;;;;;;;6.50;2.50;;;;;;;;;;105250;1299;64790;-30
2021/12/17 15:24:55;;;;;;;5.50;2.40;;;;;;;;;;105214;1295;65958;-25
2021/12/17 15:27:22;;;;;;;5.50;2.50;;;;;;;;;;105265;1296;64857;-26
2021/12/17 15:29:49;;;;;;;6.50;2.70;;;;;;;;;;105238;1299;64905;-28
2021/12/17 15:32:16;;;;;;;5.90;2.40;;;;;;;;;;105372;1297;65977;-26
2021/12/17 15:34:43;;;;;;;6.90;2.60;;;;;;;;;;105374;1296;64896;-26
2021/12/17 15:37:11;;;;;;;6.30;2.70;;;;;;;;;;105392;1298;64936;-27
2021/12/17 15:39:38;;;;;;;8.10;2.90;;;;;;;;;;105373;1296;64877;-33
2021/12/17 15:42:05;;;;;;;6.50;3.00;;;;;;;;;;105394;1291;64745;-30
2021/12/17 15:44:32;;;;;;;8.60;3.70;;;;;;;;;;105396;1296;64751;-34
2021/12/17 15:46:59;;;;;;;8.40;3.90;;;;;;;;;;105413;1295;64882;-35
2021/12/17 15:49:26;;;;;;;9.20;4.20;;;;;;;;;;105414;1294;64844;-33
2021/12/17 15:51:53;;;;;;;11.60;5.00;;;;;;;;;;105391;1296;64883;-35
2021/12/17 15:54:20;;;;;;;11.00;4.60;;;;;;;;;;105384;1294;64850;-34
2021/12/17 15:56:47;;;;;;;11.30;4.50;;;;;;;;;;105381;1293;64927;-33
2021/12/17 15:59:15;;;;;;;12.80;5.60;;;;;;;;;;105286;1296;64858;-33
2021/12/17 16:01:42;;;;;;;12.40;4.50;;;;;;;;;;105420;1296;64812;-33
2021/12/17 16:04:10;;;;;;;11.50;4.80;;;;;;;;;;105414;1288;64749;-32
2021/12/17 16:06:37;;;;;;;11.80;5.20;;;;;;;;;;105241;1296;64963;-33
2021/12/17 16:09:12;;;;;;;11.20;5.00;;;;;;;;;;105418;1296;64921;-31
2021/12/17 16:17:34;;;;;;;18.20;6.50;;;;;;;;;;105397;1296;64857;-32
2021/12/17 16:22:25;;;;;;;13.10;5.50;;;;;;;;;;105401;1294;64888;-27
2021/12/17 16:24:52;;;;;;;16.40;6.80;;;;;;;;;;105246;1297;64824;-28
2021/12/17 16:27:20;;;;;;;18.10;7.30;;;;;;;;;;105412;1297;64851;-28
2021/12/17 16:29:47;;;;;;;15.50;7.00;;;;;;;;;;105431;1296;64778;-29
2021/12/17 16:32:14;;;;;;;14.90;7.60;;;;;;;;;;105402;1297;64727;-30
2021/12/17 16:34:41;;;;;;;18.00;7.60;;;;;;;;;;105252;1295;64860;-27
2021/12/17 16:37:09;;;;;;;16.80;7.50;;;;;;;;;;105391;1295;64772;-32
2021/12/17 16:39:36;;;;;;;21.70;8.30;;;;;;;;;;105401;1296;64855;-35
2021/12/17 16:42:04;;;;;;;18.30;7.80;;;;;;;;;;105383;1297;64740;-33
2021/12/17 16:45:03;;;;;;;17.70;7.70;;;;;;;;;;105382;1296;64879;-32
2021/12/17 16:47:28;;;;;;;17.20;7.10;;;;;;;;;;105388;1295;64785;-33
2021/12/17 16:49:55;;;;;;;15.00;6.90;;;;;;;;;;105417;1299;64888;-28
2021/12/17 16:52:26;;;;;;;17.20;6.80;;;;;;;;;;105352;1296;64779;-30
2021/12/17 16:54:56;;;;;;;14.50;7.00;;;;;;;;;;105414;1293;64888;-33
2021/12/17 16:57:24;;;;;;;15.00;6.50;;;;;;;;;;105374;1297;66020;-32
2021/12/17 16:59:51;;;;;;;15.60;6.30;;;;;;;;;;105413;1295;64810;-33
2021/12/17 17:02:18;;;;;;;14.70;6.80;;;;;;;;;;105392;1295;64824;-29
2021/12/17 17:04:45;;;;;;;14.40;5.80;;;;;;;;;;105234;1296;64869;-33
2021/12/17 17:07:12;;;;;;;12.70;5.80;;;;;;;;;;105405;1299;64845;-35
2021/12/17 17:09:38;;;;;;;10.60;5.10;;;;;;;;;;105373;1297;64870;-36
2021/12/17 17:12:08;;;;;;;13.60;5.40;;;;;;;;;;105228;1288;64867;-31
2021/12/17 17:14:35;;;;;;;10.50;5.00;;;;;;;;;;105329;1297;64928;-32
2021/12/17 17:17:05;;;;;;;12.40;5.70;;;;;;;;;;105361;1299;64848;-33
2021/12/17 17:19:33;;;;;;;11.90;5.20;;;;;;;;;;105414;1296;64781;-28
2021/12/17 17:22:00;;;;;;;10.30;4.70;;;;;;;;;;105568;1293;65196;-35
2021/12/17 17:24:27;;;;;;;14.10;6.10;;;;;;;;;;105518;1297;64878;-33
2021/12/17 17:26:54;;;;;;;12.30;4.40;;;;;;;;;;105510;1289;64888;-33
2021/12/17 17:29:21;;;;;;;12.50;4.50;;;;;;;;;;105439;1294;65539;-32
2021/12/17 17:31:48;;;;;;;11.20;4.60;;;;;;;;;;105314;1297;64801;-31
2021/12/17 17:34:15;;;;;;;8.40;4.20;;;;;;;;;;105381;1295;64863;-31
2021/12/17 17:36:43;;;;;;;12.80;5.10;;;;;;;;;;105364;1296;64893;-32
2021/12/17 17:39:11;;;;;;;10.50;4.70;;;;;;;;;;105372;1296;64789;-36
2021/12/17 17:41:39;;;;;;;12.90;5.00;;;;;;;;;;105281;1296;64740;-36
2021/12/17 17:44:08;;;;;;;10.00;3.80;;;;;;;;;;105416;1298;64866;-28
2021/12/17 17:46:35;;;;;;;11.40;4.30;;;;;;;;;;105441;1297;64724;-30